sensor_id;sensor_type;location;lat;lon;timestamp;P1;durP1;ratioP1;P2;durP2;ratioP2
68985;SDS011;56035;37.534;-122.308;2022-08-21T00:01:05;4.82;;;2.80;;
68985;SDS011;56035;37.534;-122.308;2022-08-21T00:03:35;5.70;;;3.10;;
68985;SDS011;56035;37.534;-122.308;2022-08-21T00:06:02;4.47;;;2.47;;
68985;SDS011;56035;37.534;-122.308;2022-08-21T00:08:28;4.10;;;2.67;;
68985;SDS011;56035;37.534;-122.308;2022-08-21T00:10:54;5.43;;;2.42;;
68985;SDS011;56035;37.534;-122.308;2022-08-21T00:13:21;4.40;;;2.58;;
68985;SDS011;56035;37.534;-122.308;2022-08-21T00:15:47;5.38;;;2.70;;
68985;SDS011;56035;37.534;-122.308;2022-08-21T00:18:14;6.32;;;2.78;;
68985;SDS011;56035;37.534;-122.308;2022-08-21T00:20:41;4.20;;;2.55;;
68985;SDS011;56035;37.534;-122.308;2022-08-21T00:23:09;4.72;;;2.58;;
68985;SDS011;56035;37.534;-122.308;2022-08-21T00:25:35;5.90;;;2.65;;
68985;SDS011;56035;37.534;-122.308;2022-08-21T00:28:02;5.05;;;2.58;;
68985;SDS011;56035;37.534;-122.308;2022-08-21T00:30:29;4.25;;;2.58;;
68985;SDS011;56035;37.534;-122.308;2022-08-21T00:32:56;4.68;;;2.78;;
68985;SDS011;56035;37.534;-122.308;2022-08-21T00:35:30;4.72;;;2.60;;
68985;SDS011;56035;37.534;-122.308;2022-08-21T00:37:58;5.88;;;2.67;;
68985;SDS011;56035;37.534;-122.308;2022-08-21T00:40:29;5.82;;;2.60;;
68985;SDS011;56035;37.534;-122.308;2022-08-21T00:43:04;5.05;;;3.15;;
68985;SDS011;56035;37.534;-122.308;2022-08-21T00:45:32;5.28;;;2.50;;
68985;SDS011;56035;37.534;-122.308;2022-08-21T00:50:26;5.20;;;2.60;;
68985;SDS011;56035;37.534;-122.308;2022-08-21T00:52:57;6.10;;;2.70;;
68985;SDS011;56035;37.534;-122.308;2022-08-21T00:55:25;8.45;;;3.20;;
68985;SDS011;56035;37.534;-122.308;2022-08-21T00:57:54;5.28;;;2.70;;
68985;SDS011;56035;37.534;-122.308;2022-08-21T01:00:24;6.13;;;2.90;;
68985;SDS011;56035;37.534;-122.308;2022-08-21T01:02:54;6.13;;;3.42;;
68985;SDS011;56035;37.534;-122.308;2022-08-21T01:05:21;5.13;;;3.05;;
68985;SDS011;56035;37.534;-122.308;2022-08-21T01:07:47;5.97;;;2.88;;
68985;SDS011;56035;37.534;-122.308;2022-08-21T01:10:14;5.60;;;2.65;;
68985;SDS011;56035;37.534;-122.308;2022-08-21T01:12:41;6.25;;;2.55;;
68985;SDS011;56035;37.534;-122.308;2022-08-21T01:15:07;5.50;;;2.72;;
68985;SDS011;56035;37.534;-122.308;2022-08-21T01:17:33;5.82;;;2.65;;
68985;SDS011;56035;37.534;-122.308;2022-08-21T01:20:03;4.60;;;2.60;;
68985;SDS011;56035;37.534;-122.308;2022-08-21T01:22:31;5.07;;;2.80;;
68985;SDS011;56035;37.534;-122.308;2022-08-21T01:24:58;5.57;;;3.15;;
68985;SDS011;56035;37.534;-122.308;2022-08-21T01:27:24;5.53;;;2.60;;
68985;SDS011;56035;37.534;-122.308;2022-08-21T01:29:58;3.72;;;2.40;;
68985;SDS011;56035;37.534;-122.308;2022-08-21T01:32:34;16.40;;;14.27;;
68985;SDS011;56035;37.534;-122.308;2022-08-21T01:35:01;5.95;;;3.35;;
68985;SDS011;56035;37.534;-122.308;2022-08-21T01:37:28;6.03;;;2.92;;
68985;SDS011;56035;37.534;-122.308;2022-08-21T01:39:54;6.38;;;3.03;;
68985;SDS011;56035;37.534;-122.308;2022-08-21T01:42:20;5.85;;;3.22;;
68985;SDS011;56035;37.534;-122.308;2022-08-21T01:44:46;4.75;;;2.72;;
68985;SDS011;56035;37.534;-122.308;2022-08-21T01:47:13;3.70;;;2.65;;
68985;SDS011;56035;37.534;-122.308;2022-08-21T01:49:41;4.65;;;2.63;;
68985;SDS011;56035;37.534;-122.308;2022-08-21T01:52:08;4.82;;;2.72;;
68985;SDS011;56035;37.534;-122.308;2022-08-21T01:54:36;6.55;;;3.78;;
68985;SDS011;56035;37.534;-122.308;2022-08-21T01:57:03;16.60;;;14.98;;
68985;SDS011;56035;37.534;-122.308;2022-08-21T01:59:30;17.13;;;13.45;;
68985;SDS011;56035;37.534;-122.308;2022-08-21T02:01:58;7.03;;;4.93;;
68985;SDS011;56035;37.534;-122.308;2022-08-21T02:04:24;5.88;;;3.67;;
68985;SDS011;56035;37.534;-122.308;2022-08-21T02:06:50;4.95;;;2.75;;
68985;SDS011;56035;37.534;-122.308;2022-08-21T02:09:17;4.50;;;2.28;;
68985;SDS011;56035;37.534;-122.308;2022-08-21T02:11:43;6.90;;;3.30;;
68985;SDS011;56035;37.534;-122.308;2022-08-21T02:14:10;5.57;;;2.72;;
68985;SDS011;56035;37.534;-122.308;2022-08-21T02:16:39;6.43;;;4.70;;
68985;SDS011;56035;37.534;-122.308;2022-08-21T02:19:08;5.80;;;3.13;;
68985;SDS011;56035;37.534;-122.308;2022-08-21T02:21:37;7.07;;;3.17;;
68985;SDS011;56035;37.534;-122.308;2022-08-21T02:24:03;5.55;;;3.15;;
68985;SDS011;56035;37.534;-122.308;2022-08-21T02:26:30;5.80;;;4.30;;
68985;SDS011;56035;37.534;-122.308;2022-08-21T02:28:56;5.32;;;2.70;;
68985;SDS011;56035;37.534;-122.308;2022-08-21T02:31:22;4.63;;;2.78;;
68985;SDS011;56035;37.534;-122.308;2022-08-21T02:33:49;3.78;;;2.40;;
68985;SDS011;56035;37.534;-122.308;2022-08-21T02:36:16;6.85;;;3.10;;
68985;SDS011;56035;37.534;-122.308;2022-08-21T02:41:13;5.47;;;2.83;;
68985;SDS011;56035;37.534;-122.308;2022-08-21T02:43:42;4.97;;;2.60;;
68985;SDS011;56035;37.534;-122.308;2022-08-21T02:46:09;5.55;;;2.55;;
68985;SDS011;56035;37.534;-122.308;2022-08-21T02:48:37;5.25;;;2.92;;
68985;SDS011;56035;37.534;-122.308;2022-08-21T02:51:06;4.57;;;2.60;;
68985;SDS011;56035;37.534;-122.308;2022-08-21T02:53:34;5.38;;;2.83;;
68985;SDS011;56035;37.534;-122.308;2022-08-21T02:56:02;5.35;;;2.65;;
68985;SDS011;56035;37.534;-122.308;2022-08-21T02:58:32;4.03;;;2.47;;
68985;SDS011;56035;37.534;-122.308;2022-08-21T03:01:00;5.05;;;2.65;;
68985;SDS011;56035;37.534;-122.308;2022-08-21T03:03:27;5.22;;;2.90;;
68985;SDS011;56035;37.534;-122.308;2022-08-21T03:05:54;4.80;;;2.53;;
68985;SDS011;56035;37.534;-122.308;2022-08-21T03:08:21;6.00;;;2.95;;
68985;SDS011;56035;37.534;-122.308;2022-08-21T03:10:49;7.25;;;3.17;;
68985;SDS011;56035;37.534;-122.308;2022-08-21T03:13:17;8.25;;;2.90;;
68985;SDS011;56035;37.534;-122.308;2022-08-21T03:15:46;6.70;;;3.25;;
68985;SDS011;56035;37.534;-122.308;2022-08-21T03:18:13;4.55;;;3.10;;
68985;SDS011;56035;37.534;-122.308;2022-08-21T03:20:40;5.50;;;3.10;;
68985;SDS011;56035;37.534;-122.308;2022-08-21T03:23:07;4.27;;;2.67;;
68985;SDS011;56035;37.534;-122.308;2022-08-21T03:28:04;4.90;;;2.80;;
68985;SDS011;56035;37.534;-122.308;2022-08-21T03:30:32;6.78;;;3.33;;
68985;SDS011;56035;37.534;-122.308;2022-08-21T03:32:59;5.35;;;3.15;;
68985;SDS011;56035;37.534;-122.308;2022-08-21T03:35:26;6.72;;;3.10;;
68985;SDS011;56035;37.534;-122.308;2022-08-21T03:37:53;6.97;;;2.83;;
68985;SDS011;56035;37.534;-122.308;2022-08-21T03:40:21;5.85;;;2.88;;
68985;SDS011;56035;37.534;-122.308;2022-08-21T03:42:49;6.80;;;3.00;;
68985;SDS011;56035;37.534;-122.308;2022-08-21T03:45:16;7.28;;;2.95;;
68985;SDS011;56035;37.534;-122.308;2022-08-21T03:47:56;4.60;;;2.40;;
68985;SDS011;56035;37.534;-122.308;2022-08-21T03:50:24;5.60;;;2.45;;
68985;SDS011;56035;37.534;-122.308;2022-08-21T03:52:55;5.10;;;2.40;;
68985;SDS011;56035;37.534;-122.308;2022-08-21T03:55:21;4.85;;;2.65;;
68985;SDS011;56035;37.534;-122.308;2022-08-21T03:57:48;4.60;;;2.60;;
68985;SDS011;56035;37.534;-122.308;2022-08-21T04:00:15;3.53;;;2.17;;
68985;SDS011;56035;37.534;-122.308;2022-08-21T04:02:42;5.63;;;2.73;;
68985;SDS011;56035;37.534;-122.308;2022-08-21T04:05:09;4.68;;;2.60;;
68985;SDS011;56035;37.534;-122.308;2022-08-21T04:07:36;4.60;;;2.80;;
68985;SDS011;56035;37.534;-122.308;2022-08-21T04:10:03;7.65;;;3.17;;
68985;SDS011;56035;37.534;-122.308;2022-08-21T04:12:30;4.90;;;2.80;;
68985;SDS011;56035;37.534;-122.308;2022-08-21T04:14:56;4.07;;;2.35;;
68985;SDS011;56035;37.534;-122.308;2022-08-21T04:17:23;7.85;;;3.00;;
68985;SDS011;56035;37.534;-122.308;2022-08-21T04:19:49;5.28;;;2.58;;
68985;SDS011;56035;37.534;-122.308;2022-08-21T04:22:16;5.88;;;2.70;;
68985;SDS011;56035;37.534;-122.308;2022-08-21T04:24:44;5.30;;;2.83;;
68985;SDS011;56035;37.534;-122.308;2022-08-21T04:27:14;5.67;;;2.70;;
68985;SDS011;56035;37.534;-122.308;2022-08-21T04:29:40;7.10;;;2.63;;
68985;SDS011;56035;37.534;-122.308;2022-08-21T04:32:06;5.85;;;3.15;;
68985;SDS011;56035;37.534;-122.308;2022-08-21T04:34:32;7.13;;;2.80;;
68985;SDS011;56035;37.534;-122.308;2022-08-21T04:36:58;4.38;;;2.38;;
68985;SDS011;56035;37.534;-122.308;2022-08-21T04:39:24;5.93;;;2.70;;
68985;SDS011;56035;37.534;-122.308;2022-08-21T04:41:50;5.95;;;2.65;;
68985;SDS011;56035;37.534;-122.308;2022-08-21T04:44:16;4.40;;;2.45;;
68985;SDS011;56035;37.534;-122.308;2022-08-21T04:46:43;5.40;;;2.35;;
68985;SDS011;56035;37.534;-122.308;2022-08-21T04:49:09;5.55;;;2.58;;
68985;SDS011;56035;37.534;-122.308;2022-08-21T04:51:36;6.07;;;2.67;;
68985;SDS011;56035;37.534;-122.308;2022-08-21T04:54:14;7.05;;;3.05;;
68985;SDS011;56035;37.534;-122.308;2022-08-21T04:56:52;6.17;;;2.50;;
68985;SDS011;56035;37.534;-122.308;2022-08-21T04:59:30;7.55;;;3.08;;
68985;SDS011;56035;37.534;-122.308;2022-08-21T05:02:01;4.83;;;2.60;;
68985;SDS011;56035;37.534;-122.308;2022-08-21T05:04:30;5.10;;;2.80;;
68985;SDS011;56035;37.534;-122.308;2022-08-21T05:06:59;6.43;;;2.50;;
68985;SDS011;56035;37.534;-122.308;2022-08-21T05:09:29;4.77;;;2.47;;
68985;SDS011;56035;37.534;-122.308;2022-08-21T05:11:55;6.80;;;2.40;;
68985;SDS011;56035;37.534;-122.308;2022-08-21T05:14:23;6.27;;;2.87;;
68985;SDS011;56035;37.534;-122.308;2022-08-21T05:16:52;4.97;;;2.10;;
68985;SDS011;56035;37.534;-122.308;2022-08-21T05:19:18;7.22;;;3.13;;
68985;SDS011;56035;37.534;-122.308;2022-08-21T05:21:45;7.40;;;2.72;;
68985;SDS011;56035;37.534;-122.308;2022-08-21T05:24:12;7.30;;;3.40;;
68985;SDS011;56035;37.534;-122.308;2022-08-21T05:26:39;4.75;;;2.42;;
68985;SDS011;56035;37.534;-122.308;2022-08-21T05:29:05;6.68;;;2.90;;
68985;SDS011;56035;37.534;-122.308;2022-08-21T05:31:32;7.90;;;2.75;;
68985;SDS011;56035;37.534;-122.308;2022-08-21T05:33:58;7.15;;;2.80;;
68985;SDS011;56035;37.534;-122.308;2022-08-21T05:36:24;6.18;;;2.55;;
68985;SDS011;56035;37.534;-122.308;2022-08-21T05:38:50;5.47;;;2.85;;
68985;SDS011;56035;37.534;-122.308;2022-08-21T05:41:17;6.15;;;2.40;;
68985;SDS011;56035;37.534;-122.308;2022-08-21T05:43:43;6.25;;;2.88;;
68985;SDS011;56035;37.534;-122.308;2022-08-21T05:46:09;7.28;;;2.75;;
68985;SDS011;56035;37.534;-122.308;2022-08-21T05:48:35;5.45;;;2.70;;
68985;SDS011;56035;37.534;-122.308;2022-08-21T05:51:06;7.50;;;2.90;;
68985;SDS011;56035;37.534;-122.308;2022-08-21T05:53:36;7.93;;;3.47;;
68985;SDS011;56035;37.534;-122.308;2022-08-21T05:56:03;6.20;;;2.43;;
68985;SDS011;56035;37.534;-122.308;2022-08-21T05:58:31;5.90;;;2.37;;
68985;SDS011;56035;37.534;-122.308;2022-08-21T06:00:58;6.90;;;2.67;;
68985;SDS011;56035;37.534;-122.308;2022-08-21T06:03:26;5.55;;;2.65;;
68985;SDS011;56035;37.534;-122.308;2022-08-21T06:05:58;7.30;;;2.90;;
68985;SDS011;56035;37.534;-122.308;2022-08-21T06:08:24;7.20;;;2.60;;
68985;SDS011;56035;37.534;-122.308;2022-08-21T06:10:51;6.30;;;2.60;;
68985;SDS011;56035;37.534;-122.308;2022-08-21T06:13:19;6.83;;;2.77;;
68985;SDS011;56035;37.534;-122.308;2022-08-21T06:15:47;6.97;;;2.63;;
68985;SDS011;56035;37.534;-122.308;2022-08-21T06:18:14;5.28;;;2.97;;
68985;SDS011;56035;37.534;-122.308;2022-08-21T06:20:40;5.40;;;2.50;;
68985;SDS011;56035;37.534;-122.308;2022-08-21T06:23:07;4.75;;;2.30;;
68985;SDS011;56035;37.534;-122.308;2022-08-21T06:25:34;6.68;;;2.85;;
68985;SDS011;56035;37.534;-122.308;2022-08-21T06:28:01;5.30;;;2.35;;
68985;SDS011;56035;37.534;-122.308;2022-08-21T06:30:29;4.77;;;2.57;;
68985;SDS011;56035;37.534;-122.308;2022-08-21T06:32:56;5.68;;;2.50;;
68985;SDS011;56035;37.534;-122.308;2022-08-21T06:35:22;6.72;;;2.63;;
68985;SDS011;56035;37.534;-122.308;2022-08-21T06:37:49;7.17;;;2.70;;
68985;SDS011;56035;37.534;-122.308;2022-08-21T06:40:16;6.40;;;2.40;;
68985;SDS011;56035;37.534;-122.308;2022-08-21T06:42:42;6.82;;;2.67;;
68985;SDS011;56035;37.534;-122.308;2022-08-21T06:45:09;5.50;;;2.10;;
68985;SDS011;56035;37.534;-122.308;2022-08-21T06:47:35;6.47;;;2.73;;
68985;SDS011;56035;37.534;-122.308;2022-08-21T06:50:02;5.93;;;2.40;;
68985;SDS011;56035;37.534;-122.308;2022-08-21T06:52:33;6.60;;;2.33;;
68985;SDS011;56035;37.534;-122.308;2022-08-21T06:55:06;4.47;;;2.47;;
68985;SDS011;56035;37.534;-122.308;2022-08-21T06:57:34;6.77;;;2.80;;
68985;SDS011;56035;37.534;-122.308;2022-08-21T07:00:02;4.85;;;2.20;;
68985;SDS011;56035;37.534;-122.308;2022-08-21T07:02:31;8.87;;;2.60;;
68985;SDS011;56035;37.534;-122.308;2022-08-21T07:04:59;5.57;;;2.13;;
68985;SDS011;56035;37.534;-122.308;2022-08-21T07:07:25;5.25;;;2.13;;
68985;SDS011;56035;37.534;-122.308;2022-08-21T07:09:51;5.85;;;2.40;;
68985;SDS011;56035;37.534;-122.308;2022-08-21T07:12:17;7.63;;;2.13;;
68985;SDS011;56035;37.534;-122.308;2022-08-21T07:14:45;6.60;;;2.20;;
68985;SDS011;56035;37.534;-122.308;2022-08-21T07:17:11;4.75;;;2.17;;
68985;SDS011;56035;37.534;-122.308;2022-08-21T07:19:37;4.78;;;1.90;;
68985;SDS011;56035;37.534;-122.308;2022-08-21T07:22:03;6.23;;;2.13;;
68985;SDS011;56035;37.534;-122.308;2022-08-21T07:24:29;3.88;;;1.90;;
68985;SDS011;56035;37.534;-122.308;2022-08-21T07:26:55;5.88;;;2.30;;
68985;SDS011;56035;37.534;-122.308;2022-08-21T07:29:21;6.78;;;2.20;;
68985;SDS011;56035;37.534;-122.308;2022-08-21T07:31:48;4.65;;;1.63;;
68985;SDS011;56035;37.534;-122.308;2022-08-21T07:34:14;4.35;;;1.90;;
68985;SDS011;56035;37.534;-122.308;2022-08-21T07:36:40;4.03;;;1.73;;
68985;SDS011;56035;37.534;-122.308;2022-08-21T07:39:06;4.93;;;1.88;;
68985;SDS011;56035;37.534;-122.308;2022-08-21T07:41:33;5.32;;;2.13;;
68985;SDS011;56035;37.534;-122.308;2022-08-21T07:44:00;5.57;;;2.03;;
68985;SDS011;56035;37.534;-122.308;2022-08-21T07:46:27;6.10;;;2.33;;
68985;SDS011;56035;37.534;-122.308;2022-08-21T07:48:53;7.30;;;2.40;;
68985;SDS011;56035;37.534;-122.308;2022-08-21T07:51:20;6.00;;;2.45;;
68985;SDS011;56035;37.534;-122.308;2022-08-21T07:53:50;5.40;;;2.03;;
68985;SDS011;56035;37.534;-122.308;2022-08-21T07:56:18;4.20;;;2.20;;
68985;SDS011;56035;37.534;-122.308;2022-08-21T07:58:44;3.65;;;1.85;;
68985;SDS011;56035;37.534;-122.308;2022-08-21T08:01:10;6.28;;;2.40;;
68985;SDS011;56035;37.534;-122.308;2022-08-21T08:03:37;3.72;;;1.65;;
68985;SDS011;56035;37.534;-122.308;2022-08-21T08:06:04;4.47;;;2.30;;
68985;SDS011;56035;37.534;-122.308;2022-08-21T08:08:31;4.67;;;2.00;;
68985;SDS011;56035;37.534;-122.308;2022-08-21T08:10:58;4.45;;;2.03;;
68985;SDS011;56035;37.534;-122.308;2022-08-21T08:15:51;3.80;;;1.60;;
68985;SDS011;56035;37.534;-122.308;2022-08-21T08:18:17;5.03;;;1.85;;
68985;SDS011;56035;37.534;-122.308;2022-08-21T08:20:43;3.45;;;2.00;;
68985;SDS011;56035;37.534;-122.308;2022-08-21T08:23:10;5.60;;;2.35;;
68985;SDS011;56035;37.534;-122.308;2022-08-21T08:25:37;3.43;;;2.03;;
68985;SDS011;56035;37.534;-122.308;2022-08-21T08:28:04;6.53;;;2.15;;
68985;SDS011;56035;37.534;-122.308;2022-08-21T08:30:31;4.13;;;2.17;;
68985;SDS011;56035;37.534;-122.308;2022-08-21T08:32:57;4.32;;;2.00;;
68985;SDS011;56035;37.534;-122.308;2022-08-21T08:35:25;5.32;;;1.85;;
68985;SDS011;56035;37.534;-122.308;2022-08-21T08:37:51;5.68;;;2.72;;
68985;SDS011;56035;37.534;-122.308;2022-08-21T08:40:32;5.40;;;2.70;;
68985;SDS011;56035;37.534;-122.308;2022-08-21T08:43:03;5.37;;;2.67;;
68985;SDS011;56035;37.534;-122.308;2022-08-21T08:45:31;7.60;;;3.30;;
68985;SDS011;56035;37.534;-122.308;2022-08-21T08:48:01;6.43;;;3.07;;
68985;SDS011;56035;37.534;-122.308;2022-08-21T08:53:10;8.07;;;3.37;;
68985;SDS011;56035;37.534;-122.308;2022-08-21T08:55:43;10.97;;;3.67;;
68985;SDS011;56035;37.534;-122.308;2022-08-21T08:58:32;7.63;;;3.30;;
68985;SDS011;56035;37.534;-122.308;2022-08-21T09:03:25;7.90;;;3.67;;
68985;SDS011;56035;37.534;-122.308;2022-08-21T09:06:00;9.90;;;3.57;;
68985;SDS011;56035;37.534;-122.308;2022-08-21T09:09:15;8.80;;;3.90;;
68985;SDS011;56035;37.534;-122.308;2022-08-21T09:17:01;8.80;;;3.87;;
68985;SDS011;56035;37.534;-122.308;2022-08-21T09:19:53;9.00;;;3.72;;
68985;SDS011;56035;37.534;-122.308;2022-08-21T09:25:46;7.40;;;3.50;;
68985;SDS011;56035;37.534;-122.308;2022-08-21T09:28:16;6.73;;;2.83;;
68985;SDS011;56035;37.534;-122.308;2022-08-21T09:30:43;6.07;;;2.92;;
68985;SDS011;56035;37.534;-122.308;2022-08-21T09:33:09;6.00;;;2.75;;
68985;SDS011;56035;37.534;-122.308;2022-08-21T09:35:47;5.43;;;2.50;;
68985;SDS011;56035;37.534;-122.308;2022-08-21T09:38:37;6.33;;;2.60;;
68985;SDS011;56035;37.534;-122.308;2022-08-21T09:41:05;5.43;;;2.67;;
68985;SDS011;56035;37.534;-122.308;2022-08-21T09:43:34;7.03;;;2.93;;
68985;SDS011;56035;37.534;-122.308;2022-08-21T09:48:45;7.37;;;2.53;;
68985;SDS011;56035;37.534;-122.308;2022-08-21T09:51:15;6.77;;;2.93;;
68985;SDS011;56035;37.534;-122.308;2022-08-21T09:53:55;4.93;;;2.43;;
68985;SDS011;56035;37.534;-122.308;2022-08-21T10:00:06;4.50;;;2.30;;
68985;SDS011;56035;37.534;-122.308;2022-08-21T10:02:42;6.03;;;3.03;;
68985;SDS011;56035;37.534;-122.308;2022-08-21T10:07:41;5.27;;;2.63;;
68985;SDS011;56035;37.534;-122.308;2022-08-21T10:10:14;4.25;;;2.22;;
68985;SDS011;56035;37.534;-122.308;2022-08-21T10:13:20;6.20;;;2.70;;
68985;SDS011;56035;37.534;-122.308;2022-08-21T10:21:05;5.13;;;2.50;;
68985;SDS011;56035;37.534;-122.308;2022-08-21T10:26:20;6.40;;;2.80;;
68985;SDS011;56035;37.534;-122.308;2022-08-21T10:29:01;4.80;;;2.72;;
68985;SDS011;56035;37.534;-122.308;2022-08-21T10:31:42;4.55;;;2.70;;
68985;SDS011;56035;37.534;-122.308;2022-08-21T10:34:26;5.97;;;2.70;;
68985;SDS011;56035;37.534;-122.308;2022-08-21T10:37:07;5.77;;;2.60;;
68985;SDS011;56035;37.534;-122.308;2022-08-21T10:40:52;6.33;;;2.73;;
68985;SDS011;56035;37.534;-122.308;2022-08-21T10:45:49;5.13;;;2.60;;
68985;SDS011;56035;37.534;-122.308;2022-08-21T10:48:33;6.83;;;2.87;;
68985;SDS011;56035;37.534;-122.308;2022-08-21T10:51:06;6.63;;;3.13;;
68985;SDS011;56035;37.534;-122.308;2022-08-21T10:53:55;5.90;;;3.03;;
68985;SDS011;56035;37.534;-122.308;2022-08-21T10:56:30;11.73;;;3.47;;
68985;SDS011;56035;37.534;-122.308;2022-08-21T11:04:19;6.50;;;3.23;;
68985;SDS011;56035;37.534;-122.308;2022-08-21T11:06:53;5.57;;;2.70;;
68985;SDS011;56035;37.534;-122.308;2022-08-21T11:09:29;7.32;;;3.28;;
68985;SDS011;56035;37.534;-122.308;2022-08-21T11:17:35;8.03;;;3.60;;
68985;SDS011;56035;37.534;-122.308;2022-08-21T11:20:10;9.77;;;3.80;;
68985;SDS011;56035;37.534;-122.308;2022-08-21T11:22:47;10.90;;;3.63;;
68985;SDS011;56035;37.534;-122.308;2022-08-21T11:25:27;7.38;;;3.67;;
68985;SDS011;56035;37.534;-122.308;2022-08-21T11:36:20;12.67;;;5.07;;
68985;SDS011;56035;37.534;-122.308;2022-08-21T11:38:56;11.17;;;3.70;;
68985;SDS011;56035;37.534;-122.308;2022-08-21T11:41:34;10.57;;;3.97;;
68985;SDS011;56035;37.534;-122.308;2022-08-21T11:47:08;9.43;;;3.73;;
68985;SDS011;56035;37.534;-122.308;2022-08-21T11:49:53;10.63;;;4.23;;
68985;SDS011;56035;37.534;-122.308;2022-08-21T11:52:26;10.77;;;4.43;;
68985;SDS011;56035;37.534;-122.308;2022-08-21T11:57:45;11.13;;;3.90;;
68985;SDS011;56035;37.534;-122.308;2022-08-21T12:00:21;10.73;;;4.90;;
68985;SDS011;56035;37.534;-122.308;2022-08-21T12:02:52;12.40;;;4.33;;
68985;SDS011;56035;37.534;-122.308;2022-08-21T12:05:26;10.47;;;4.10;;
68985;SDS011;56035;37.534;-122.308;2022-08-21T12:08:04;9.10;;;3.93;;
68985;SDS011;56035;37.534;-122.308;2022-08-21T12:10:35;9.77;;;4.03;;
68985;SDS011;56035;37.534;-122.308;2022-08-21T12:13:20;9.07;;;4.57;;
68985;SDS011;56035;37.534;-122.308;2022-08-21T12:15:49;9.93;;;4.17;;
68985;SDS011;56035;37.534;-122.308;2022-08-21T12:18:23;7.20;;;3.70;;
68985;SDS011;56035;37.534;-122.308;2022-08-21T12:23:59;8.97;;;4.40;;
68985;SDS011;56035;37.534;-122.308;2022-08-21T12:26:53;10.33;;;4.53;;
68985;SDS011;56035;37.534;-122.308;2022-08-21T12:29:31;10.87;;;4.77;;
68985;SDS011;56035;37.534;-122.308;2022-08-21T12:34:37;11.63;;;4.57;;
68985;SDS011;56035;37.534;-122.308;2022-08-21T12:37:37;13.53;;;4.77;;
68985;SDS011;56035;37.534;-122.308;2022-08-21T12:40:20;11.20;;;5.37;;
68985;SDS011;56035;37.534;-122.308;2022-08-21T12:42:51;11.47;;;4.80;;
68985;SDS011;56035;37.534;-122.308;2022-08-21T12:45:22;11.90;;;5.13;;
68985;SDS011;56035;37.534;-122.308;2022-08-21T12:50:29;12.77;;;4.63;;
68985;SDS011;56035;37.534;-122.308;2022-08-21T12:56:14;10.07;;;4.57;;
68985;SDS011;56035;37.534;-122.308;2022-08-21T12:58:51;12.23;;;4.60;;
68985;SDS011;56035;37.534;-122.308;2022-08-21T13:03:46;10.27;;;4.80;;
68985;SDS011;56035;37.534;-122.308;2022-08-21T13:08:41;10.38;;;4.38;;
68985;SDS011;56035;37.534;-122.308;2022-08-21T13:11:10;9.90;;;4.57;;
68985;SDS011;56035;37.534;-122.308;2022-08-21T13:13:40;10.97;;;4.50;;
68985;SDS011;56035;37.534;-122.308;2022-08-21T13:16:07;10.43;;;5.00;;
68985;SDS011;56035;37.534;-122.308;2022-08-21T13:18:36;10.90;;;4.63;;
68985;SDS011;56035;37.534;-122.308;2022-08-21T13:21:17;9.63;;;4.50;;
68985;SDS011;56035;37.534;-122.308;2022-08-21T13:23:43;10.88;;;4.50;;
68985;SDS011;56035;37.534;-122.308;2022-08-21T13:26:13;10.32;;;5.00;;
68985;SDS011;56035;37.534;-122.308;2022-08-21T13:28:41;10.27;;;4.53;;
68985;SDS011;56035;37.534;-122.308;2022-08-21T13:31:09;11.40;;;5.17;;
68985;SDS011;56035;37.534;-122.308;2022-08-21T13:33:37;10.80;;;5.27;;
68985;SDS011;56035;37.534;-122.308;2022-08-21T13:36:09;10.93;;;5.00;;
68985;SDS011;56035;37.534;-122.308;2022-08-21T13:38:50;13.90;;;4.50;;
68985;SDS011;56035;37.534;-122.308;2022-08-21T13:41:21;11.70;;;4.87;;
68985;SDS011;56035;37.534;-122.308;2022-08-21T13:43:58;11.20;;;4.93;;
68985;SDS011;56035;37.534;-122.308;2022-08-21T13:46:31;12.03;;;5.23;;
68985;SDS011;56035;37.534;-122.308;2022-08-21T13:49:01;10.33;;;4.50;;
68985;SDS011;56035;37.534;-122.308;2022-08-21T13:51:31;10.00;;;5.13;;
68985;SDS011;56035;37.534;-122.308;2022-08-21T13:56:26;12.20;;;5.30;;
68985;SDS011;56035;37.534;-122.308;2022-08-21T13:58:58;10.77;;;5.07;;
68985;SDS011;56035;37.534;-122.308;2022-08-21T14:01:27;10.73;;;5.03;;
68985;SDS011;56035;37.534;-122.308;2022-08-21T14:04:22;12.30;;;4.93;;
68985;SDS011;56035;37.534;-122.308;2022-08-21T14:06:50;8.53;;;4.63;;
68985;SDS011;56035;37.534;-122.308;2022-08-21T14:11:46;13.03;;;5.07;;
68985;SDS011;56035;37.534;-122.308;2022-08-21T14:14:19;11.18;;;4.95;;
68985;SDS011;56035;37.534;-122.308;2022-08-21T14:16:54;13.57;;;5.35;;
68985;SDS011;56035;37.534;-122.308;2022-08-21T14:19:23;12.17;;;5.10;;
68985;SDS011;56035;37.534;-122.308;2022-08-21T14:21:51;12.13;;;5.40;;
68985;SDS011;56035;37.534;-122.308;2022-08-21T14:26:53;11.87;;;5.63;;
68985;SDS011;56035;37.534;-122.308;2022-08-21T14:29:41;11.33;;;4.90;;
68985;SDS011;56035;37.534;-122.308;2022-08-21T14:34:41;10.50;;;5.17;;
68985;SDS011;56035;37.534;-122.308;2022-08-21T14:37:07;9.73;;;5.47;;
68985;SDS011;56035;37.534;-122.308;2022-08-21T14:39:34;10.07;;;5.32;;
68985;SDS011;56035;37.534;-122.308;2022-08-21T14:42:00;9.40;;;4.47;;
68985;SDS011;56035;37.534;-122.308;2022-08-21T14:44:27;7.67;;;4.57;;
68985;SDS011;56035;37.534;-122.308;2022-08-21T14:46:53;9.18;;;4.25;;
68985;SDS011;56035;37.534;-122.308;2022-08-21T14:49:21;9.80;;;4.90;;
68985;SDS011;56035;37.534;-122.308;2022-08-21T14:51:48;9.43;;;4.50;;
68985;SDS011;56035;37.534;-122.308;2022-08-21T14:54:20;7.70;;;3.93;;
68985;SDS011;56035;37.534;-122.308;2022-08-21T14:56:46;8.52;;;3.95;;
68985;SDS011;56035;37.534;-122.308;2022-08-21T14:59:13;7.32;;;4.03;;
68985;SDS011;56035;37.534;-122.308;2022-08-21T15:01:39;6.50;;;4.25;;
68985;SDS011;56035;37.534;-122.308;2022-08-21T15:04:05;7.70;;;4.18;;
68985;SDS011;56035;37.534;-122.308;2022-08-21T15:06:32;7.07;;;4.10;;
68985;SDS011;56035;37.534;-122.308;2022-08-21T15:08:58;6.47;;;4.20;;
68985;SDS011;56035;37.534;-122.308;2022-08-21T15:11:24;7.78;;;3.83;;
68985;SDS011;56035;37.534;-122.308;2022-08-21T15:13:53;7.15;;;3.90;;
68985;SDS011;56035;37.534;-122.308;2022-08-21T15:16:22;5.13;;;3.03;;
68985;SDS011;56035;37.534;-122.308;2022-08-21T15:18:49;5.70;;;3.00;;
68985;SDS011;56035;37.534;-122.308;2022-08-21T15:21:15;6.13;;;3.55;;
68985;SDS011;56035;37.534;-122.308;2022-08-21T15:23:41;6.28;;;3.38;;
68985;SDS011;56035;37.534;-122.308;2022-08-21T15:26:08;5.07;;;3.08;;
68985;SDS011;56035;37.534;-122.308;2022-08-21T15:28:34;4.10;;;2.70;;
68985;SDS011;56035;37.534;-122.308;2022-08-21T15:31:01;5.88;;;2.80;;
68985;SDS011;56035;37.534;-122.308;2022-08-21T15:33:28;4.18;;;2.40;;
68985;SDS011;56035;37.534;-122.308;2022-08-21T15:35:54;4.57;;;2.55;;
68985;SDS011;56035;37.534;-122.308;2022-08-21T15:38:20;3.95;;;2.10;;
68985;SDS011;56035;37.534;-122.308;2022-08-21T15:40:47;3.30;;;2.00;;
68985;SDS011;56035;37.534;-122.308;2022-08-21T15:43:18;3.40;;;2.20;;
68985;SDS011;56035;37.534;-122.308;2022-08-21T15:46:00;3.85;;;2.10;;
68985;SDS011;56035;37.534;-122.308;2022-08-21T15:48:27;4.22;;;2.10;;
68985;SDS011;56035;37.534;-122.308;2022-08-21T15:50:54;4.18;;;2.15;;
68985;SDS011;56035;37.534;-122.308;2022-08-21T15:53:20;3.13;;;1.90;;
68985;SDS011;56035;37.534;-122.308;2022-08-21T15:55:46;3.03;;;1.70;;